sensor_id;sensor_type;location;lat;lon;timestamp;P1;durP1;ratioP1;P2;durP2;ratioP2
12302;SDS011;6214;48.012;7.862;2023-12-04T00:00:32;11.15;;;8.10;;
12302;SDS011;6214;48.012;7.862;2023-12-04T00:02:59;13.82;;;10.65;;
12302;SDS011;6214;48.012;7.862;2023-12-04T00:05:26;12.98;;;9.48;;
12302;SDS011;6214;48.012;7.862;2023-12-04T00:07:53;10.82;;;8.20;;
12302;SDS011;6214;48.012;7.862;2023-12-04T00:10:20;10.07;;;6.78;;
12302;SDS011;6214;48.012;7.862;2023-12-04T00:12:48;9.33;;;6.20;;
12302;SDS011;6214;48.012;7.862;2023-12-04T00:15:15;8.30;;;4.90;;
12302;SDS011;6214;48.012;7.862;2023-12-04T00:17:43;10.80;;;7.72;;
12302;SDS011;6214;48.012;7.862;2023-12-04T00:20:10;12.32;;;8.93;;
12302;SDS011;6214;48.012;7.862;2023-12-04T00:22:37;10.80;;;7.50;;
12302;SDS011;6214;48.012;7.862;2023-12-04T00:25:05;12.27;;;9.15;;
12302;SDS011;6214;48.012;7.862;2023-12-04T00:27:33;12.15;;;9.35;;
12302;SDS011;6214;48.012;7.862;2023-12-04T00:30:00;11.38;;;8.10;;
12302;SDS011;6214;48.012;7.862;2023-12-04T00:32:30;10.93;;;7.85;;
12302;SDS011;6214;48.012;7.862;2023-12-04T00:34:57;10.05;;;6.88;;
12302;SDS011;6214;48.012;7.862;2023-12-04T00:37:25;11.70;;;8.50;;
12302;SDS011;6214;48.012;7.862;2023-12-04T00:39:53;10.00;;;6.80;;
12302;SDS011;6214;48.012;7.862;2023-12-04T00:42:20;12.10;;;8.50;;
12302;SDS011;6214;48.012;7.862;2023-12-04T00:44:48;12.00;;;9.10;;
12302;SDS011;6214;48.012;7.862;2023-12-04T00:47:14;11.82;;;8.77;;
12302;SDS011;6214;48.012;7.862;2023-12-04T00:49:41;11.47;;;7.97;;
12302;SDS011;6214;48.012;7.862;2023-12-04T00:52:09;9.68;;;6.50;;
12302;SDS011;6214;48.012;7.862;2023-12-04T00:54:38;8.23;;;5.03;;
12302;SDS011;6214;48.012;7.862;2023-12-04T00:57:07;8.13;;;4.82;;
12302;SDS011;6214;48.012;7.862;2023-12-04T00:59:34;7.90;;;4.70;;
12302;SDS011;6214;48.012;7.862;2023-12-04T01:02:01;8.65;;;5.38;;
12302;SDS011;6214;48.012;7.862;2023-12-04T01:04:28;8.85;;;5.50;;
12302;SDS011;6214;48.012;7.862;2023-12-04T01:06:56;7.72;;;4.90;;
12302;SDS011;6214;48.012;7.862;2023-12-04T01:09:23;7.60;;;4.30;;
12302;SDS011;6214;48.012;7.862;2023-12-04T01:11:52;7.85;;;4.85;;
12302;SDS011;6214;48.012;7.862;2023-12-04T01:14:20;8.70;;;5.20;;
12302;SDS011;6214;48.012;7.862;2023-12-04T01:16:47;10.25;;;6.75;;
12302;SDS011;6214;48.012;7.862;2023-12-04T01:19:14;9.93;;;6.55;;
12302;SDS011;6214;48.012;7.862;2023-12-04T01:21:41;9.15;;;6.15;;
12302;SDS011;6214;48.012;7.862;2023-12-04T01:24:08;9.00;;;5.05;;
12302;SDS011;6214;48.012;7.862;2023-12-04T01:26:35;7.47;;;4.30;;
12302;SDS011;6214;48.012;7.862;2023-12-04T01:29:03;8.00;;;4.75;;
12302;SDS011;6214;48.012;7.862;2023-12-04T01:31:30;9.63;;;5.95;;
12302;SDS011;6214;48.012;7.862;2023-12-04T01:33:57;8.60;;;5.43;;
12302;SDS011;6214;48.012;7.862;2023-12-04T01:36:24;8.00;;;4.80;;
12302;SDS011;6214;48.012;7.862;2023-12-04T01:38:51;9.32;;;6.15;;
12302;SDS011;6214;48.012;7.862;2023-12-04T01:41:18;8.98;;;5.90;;
12302;SDS011;6214;48.012;7.862;2023-12-04T01:43:45;8.52;;;5.78;;
12302;SDS011;6214;48.012;7.862;2023-12-04T01:46:14;8.10;;;5.20;;
12302;SDS011;6214;48.012;7.862;2023-12-04T01:48:44;10.00;;;7.00;;
12302;SDS011;6214;48.012;7.862;2023-12-04T01:51:13;8.50;;;5.28;;
12302;SDS011;6214;48.012;7.862;2023-12-04T01:53:40;8.02;;;4.93;;
12302;SDS011;6214;48.012;7.862;2023-12-04T01:56:09;7.40;;;4.20;;
12302;SDS011;6214;48.012;7.862;2023-12-04T01:58:36;8.80;;;5.70;;
12302;SDS011;6214;48.012;7.862;2023-12-04T02:01:04;9.00;;;5.40;;
12302;SDS011;6214;48.012;7.862;2023-12-04T02:03:31;7.43;;;4.43;;
12302;SDS011;6214;48.012;7.862;2023-12-04T02:05:59;6.80;;;3.67;;
12302;SDS011;6214;48.012;7.862;2023-12-04T02:08:29;7.50;;;4.00;;
12302;SDS011;6214;48.012;7.862;2023-12-04T02:10:56;6.63;;;3.40;;
12302;SDS011;6214;48.012;7.862;2023-12-04T02:13:23;6.13;;;2.92;;
12302;SDS011;6214;48.012;7.862;2023-12-04T02:15:51;6.93;;;3.85;;
12302;SDS011;6214;48.012;7.862;2023-12-04T02:18:20;6.20;;;3.20;;
12302;SDS011;6214;48.012;7.862;2023-12-04T02:20:48;6.80;;;3.50;;
12302;SDS011;6214;48.012;7.862;2023-12-04T02:23:15;7.35;;;4.50;;
12302;SDS011;6214;48.012;7.862;2023-12-04T02:25:42;7.70;;;4.25;;
12302;SDS011;6214;48.012;7.862;2023-12-04T02:28:10;7.70;;;4.55;;
12302;SDS011;6214;48.012;7.862;2023-12-04T02:30:40;7.10;;;3.85;;
12302;SDS011;6214;48.012;7.862;2023-12-04T02:33:10;7.00;;;3.70;;
12302;SDS011;6214;48.012;7.862;2023-12-04T02:35:39;6.82;;;3.53;;
12302;SDS011;6214;48.012;7.862;2023-12-04T02:38:08;8.02;;;4.90;;
12302;SDS011;6214;48.012;7.862;2023-12-04T02:40:35;8.20;;;5.00;;
12302;SDS011;6214;48.012;7.862;2023-12-04T02:43:02;7.60;;;4.80;;
12302;SDS011;6214;48.012;7.862;2023-12-04T02:45:29;7.60;;;4.10;;
12302;SDS011;6214;48.012;7.862;2023-12-04T02:47:56;7.28;;;4.25;;
12302;SDS011;6214;48.012;7.862;2023-12-04T02:50:23;8.48;;;5.20;;
12302;SDS011;6214;48.012;7.862;2023-12-04T02:52:50;8.00;;;4.70;;
12302;SDS011;6214;48.012;7.862;2023-12-04T02:55:17;7.50;;;4.38;;
12302;SDS011;6214;48.012;7.862;2023-12-04T02:57:44;7.30;;;4.40;;
12302;SDS011;6214;48.012;7.862;2023-12-04T03:00:11;7.07;;;3.90;;
12302;SDS011;6214;48.012;7.862;2023-12-04T03:02:38;7.30;;;4.10;;
12302;SDS011;6214;48.012;7.862;2023-12-04T03:05:05;8.27;;;5.25;;
12302;SDS011;6214;48.012;7.862;2023-12-04T03:07:32;8.60;;;5.43;;
12302;SDS011;6214;48.012;7.862;2023-12-04T03:09:59;9.60;;;6.20;;
12302;SDS011;6214;48.012;7.862;2023-12-04T03:12:26;8.13;;;5.10;;
12302;SDS011;6214;48.012;7.862;2023-12-04T03:14:53;8.27;;;5.07;;
12302;SDS011;6214;48.012;7.862;2023-12-04T03:17:20;8.10;;;4.85;;
12302;SDS011;6214;48.012;7.862;2023-12-04T03:19:47;8.10;;;4.90;;
12302;SDS011;6214;48.012;7.862;2023-12-04T03:22:13;8.13;;;4.90;;
12302;SDS011;6214;48.012;7.862;2023-12-04T03:24:40;6.97;;;3.90;;
12302;SDS011;6214;48.012;7.862;2023-12-04T03:27:08;6.90;;;3.80;;
12302;SDS011;6214;48.012;7.862;2023-12-04T03:29:35;7.32;;;4.50;;
12302;SDS011;6214;48.012;7.862;2023-12-04T03:32:02;7.70;;;4.40;;
12302;SDS011;6214;48.012;7.862;2023-12-04T03:34:29;7.68;;;4.40;;
12302;SDS011;6214;48.012;7.862;2023-12-04T03:36:55;7.40;;;4.40;;
12302;SDS011;6214;48.012;7.862;2023-12-04T03:39:22;8.60;;;5.60;;
12302;SDS011;6214;48.012;7.862;2023-12-04T03:41:49;7.60;;;4.60;;
12302;SDS011;6214;48.012;7.862;2023-12-04T03:44:16;10.90;;;7.50;;
12302;SDS011;6214;48.012;7.862;2023-12-04T03:46:43;9.27;;;6.00;;
12302;SDS011;6214;48.012;7.862;2023-12-04T03:49:10;8.80;;;6.07;;
12302;SDS011;6214;48.012;7.862;2023-12-04T03:51:37;10.98;;;8.38;;
12302;SDS011;6214;48.012;7.862;2023-12-04T03:54:04;12.13;;;9.25;;
12302;SDS011;6214;48.012;7.862;2023-12-04T03:56:30;9.02;;;6.18;;
12302;SDS011;6214;48.012;7.862;2023-12-04T03:58:57;11.45;;;8.10;;
12302;SDS011;6214;48.012;7.862;2023-12-04T04:01:24;9.75;;;6.30;;
12302;SDS011;6214;48.012;7.862;2023-12-04T04:03:51;10.53;;;7.80;;
12302;SDS011;6214;48.012;7.862;2023-12-04T04:06:18;11.32;;;8.40;;
12302;SDS011;6214;48.012;7.862;2023-12-04T04:08:45;10.85;;;7.65;;
12302;SDS011;6214;48.012;7.862;2023-12-04T04:11:12;11.65;;;8.15;;
12302;SDS011;6214;48.012;7.862;2023-12-04T04:13:38;9.50;;;6.50;;
12302;SDS011;6214;48.012;7.862;2023-12-04T04:16:05;8.30;;;5.35;;
12302;SDS011;6214;48.012;7.862;2023-12-04T04:18:33;8.30;;;4.90;;
12302;SDS011;6214;48.012;7.862;2023-12-04T04:21:01;8.80;;;5.78;;
12302;SDS011;6214;48.012;7.862;2023-12-04T04:23:28;9.10;;;6.00;;
12302;SDS011;6214;48.012;7.862;2023-12-04T04:25:55;9.10;;;6.10;;
12302;SDS011;6214;48.012;7.862;2023-12-04T04:28:22;11.30;;;8.20;;
12302;SDS011;6214;48.012;7.862;2023-12-04T04:30:50;9.35;;;7.00;;
12302;SDS011;6214;48.012;7.862;2023-12-04T04:33:16;10.02;;;6.70;;
12302;SDS011;6214;48.012;7.862;2023-12-04T04:35:44;9.52;;;6.20;;
12302;SDS011;6214;48.012;7.862;2023-12-04T04:38:11;9.38;;;6.35;;
12302;SDS011;6214;48.012;7.862;2023-12-04T04:40:38;8.80;;;6.00;;
12302;SDS011;6214;48.012;7.862;2023-12-04T04:43:09;7.50;;;4.60;;
12302;SDS011;6214;48.012;7.862;2023-12-04T04:45:37;9.93;;;7.40;;
12302;SDS011;6214;48.012;7.862;2023-12-04T04:48:04;11.23;;;7.50;;
12302;SDS011;6214;48.012;7.862;2023-12-04T04:50:31;9.18;;;6.40;;
12302;SDS011;6214;48.012;7.862;2023-12-04T04:52:57;9.87;;;6.47;;
12302;SDS011;6214;48.012;7.862;2023-12-04T04:55:24;10.90;;;7.10;;
12302;SDS011;6214;48.012;7.862;2023-12-04T04:58:11;8.40;;;5.53;;
12302;SDS011;6214;48.012;7.862;2023-12-04T05:00:38;7.30;;;3.90;;
12302;SDS011;6214;48.012;7.862;2023-12-04T05:03:05;6.90;;;4.00;;
12302;SDS011;6214;48.012;7.862;2023-12-04T05:05:32;7.15;;;4.25;;
12302;SDS011;6214;48.012;7.862;2023-12-04T05:07:59;6.40;;;3.10;;
12302;SDS011;6214;48.012;7.862;2023-12-04T05:10:26;7.43;;;4.43;;
12302;SDS011;6214;48.012;7.862;2023-12-04T05:12:53;7.70;;;4.63;;
12302;SDS011;6214;48.012;7.862;2023-12-04T05:15:20;7.97;;;4.38;;
12302;SDS011;6214;48.012;7.862;2023-12-04T05:17:47;6.40;;;3.15;;
12302;SDS011;6214;48.012;7.862;2023-12-04T05:20:14;5.80;;;2.50;;
12302;SDS011;6214;48.012;7.862;2023-12-04T05:22:41;5.80;;;2.40;;
12302;SDS011;6214;48.012;7.862;2023-12-04T05:25:08;8.00;;;4.95;;
12302;SDS011;6214;48.012;7.862;2023-12-04T05:27:35;8.67;;;4.90;;
12302;SDS011;6214;48.012;7.862;2023-12-04T05:30:01;8.80;;;5.10;;
12302;SDS011;6214;48.012;7.862;2023-12-04T05:32:29;8.05;;;5.22;;
12302;SDS011;6214;48.012;7.862;2023-12-04T05:34:55;8.60;;;5.30;;
12302;SDS011;6214;48.012;7.862;2023-12-04T05:37:22;7.90;;;4.47;;
12302;SDS011;6214;48.012;7.862;2023-12-04T05:39:49;8.00;;;4.60;;
12302;SDS011;6214;48.012;7.862;2023-12-04T05:42:16;7.97;;;5.10;;
12302;SDS011;6214;48.012;7.862;2023-12-04T05:44:43;7.22;;;4.32;;
12302;SDS011;6214;48.012;7.862;2023-12-04T05:47:10;8.75;;;4.95;;
12302;SDS011;6214;48.012;7.862;2023-12-04T05:49:37;8.60;;;5.40;;
12302;SDS011;6214;48.012;7.862;2023-12-04T05:52:04;8.05;;;4.90;;
12302;SDS011;6214;48.012;7.862;2023-12-04T05:54:31;7.40;;;4.33;;
12302;SDS011;6214;48.012;7.862;2023-12-04T05:56:58;8.18;;;4.78;;
12302;SDS011;6214;48.012;7.862;2023-12-04T05:59:25;7.93;;;4.63;;
12302;SDS011;6214;48.012;7.862;2023-12-04T06:01:51;7.20;;;3.80;;
12302;SDS011;6214;48.012;7.862;2023-12-04T06:04:18;5.90;;;2.90;;
12302;SDS011;6214;48.012;7.862;2023-12-04T06:06:45;5.90;;;2.80;;
12302;SDS011;6214;48.012;7.862;2023-12-04T06:09:12;8.33;;;4.37;;
12302;SDS011;6214;48.012;7.862;2023-12-04T06:11:41;7.32;;;4.10;;
12302;SDS011;6214;48.012;7.862;2023-12-04T06:14:12;7.40;;;3.58;;
12302;SDS011;6214;48.012;7.862;2023-12-04T06:16:38;7.50;;;4.10;;
12302;SDS011;6214;48.012;7.862;2023-12-04T06:19:05;6.97;;;3.78;;
12302;SDS011;6214;48.012;7.862;2023-12-04T06:21:32;6.10;;;2.90;;
12302;SDS011;6214;48.012;7.862;2023-12-04T06:23:59;6.72;;;3.40;;
12302;SDS011;6214;48.012;7.862;2023-12-04T06:26:31;7.35;;;4.20;;
12302;SDS011;6214;48.012;7.862;2023-12-04T06:28:58;8.10;;;4.40;;
12302;SDS011;6214;48.012;7.862;2023-12-04T06:31:25;7.43;;;4.50;;
12302;SDS011;6214;48.012;7.862;2023-12-04T06:33:52;6.70;;;3.55;;
12302;SDS011;6214;48.012;7.862;2023-12-04T06:36:19;6.53;;;3.40;;
12302;SDS011;6214;48.012;7.862;2023-12-04T06:38:48;7.63;;;4.90;;
12302;SDS011;6214;48.012;7.862;2023-12-04T06:41:19;8.07;;;4.80;;
12302;SDS011;6214;48.012;7.862;2023-12-04T06:43:47;8.70;;;5.40;;
12302;SDS011;6214;48.012;7.862;2023-12-04T06:46:19;10.80;;;8.20;;
12302;SDS011;6214;48.012;7.862;2023-12-04T06:48:50;10.77;;;7.65;;
12302;SDS011;6214;48.012;7.862;2023-12-04T06:51:21;9.10;;;5.90;;
12302;SDS011;6214;48.012;7.862;2023-12-04T06:53:47;10.13;;;7.43;;
12302;SDS011;6214;48.012;7.862;2023-12-04T06:56:14;10.50;;;7.35;;
12302;SDS011;6214;48.012;7.862;2023-12-04T06:58:45;10.17;;;6.67;;
12302;SDS011;6214;48.012;7.862;2023-12-04T07:01:12;9.52;;;6.55;;
12302;SDS011;6214;48.012;7.862;2023-12-04T07:03:39;13.70;;;11.48;;
12302;SDS011;6214;48.012;7.862;2023-12-04T07:06:06;13.80;;;11.07;;
12302;SDS011;6214;48.012;7.862;2023-12-04T07:08:33;13.18;;;9.82;;
12302;SDS011;6214;48.012;7.862;2023-12-04T07:11:00;14.13;;;10.93;;
12302;SDS011;6214;48.012;7.862;2023-12-04T07:13:27;11.70;;;8.82;;
12302;SDS011;6214;48.012;7.862;2023-12-04T07:15:54;13.85;;;10.45;;
12302;SDS011;6214;48.012;7.862;2023-12-04T07:18:21;15.10;;;11.80;;
12302;SDS011;6214;48.012;7.862;2023-12-04T07:20:47;12.53;;;9.90;;
12302;SDS011;6214;48.012;7.862;2023-12-04T07:23:14;13.50;;;10.87;;
12302;SDS011;6214;48.012;7.862;2023-12-04T07:25:41;12.45;;;9.20;;
12302;SDS011;6214;48.012;7.862;2023-12-04T07:28:08;12.60;;;9.93;;
12302;SDS011;6214;48.012;7.862;2023-12-04T07:30:35;14.05;;;11.27;;
12302;SDS011;6214;48.012;7.862;2023-12-04T07:33:02;13.70;;;11.05;;
12302;SDS011;6214;48.012;7.862;2023-12-04T07:35:31;11.65;;;8.32;;
12302;SDS011;6214;48.012;7.862;2023-12-04T07:37:58;11.98;;;9.50;;
12302;SDS011;6214;48.012;7.862;2023-12-04T07:40:25;12.20;;;9.27;;
12302;SDS011;6214;48.012;7.862;2023-12-04T07:42:52;12.98;;;10.38;;
12302;SDS011;6214;48.012;7.862;2023-12-04T07:45:19;13.05;;;9.50;;
12302;SDS011;6214;48.012;7.862;2023-12-04T07:47:46;12.00;;;9.05;;
12302;SDS011;6214;48.012;7.862;2023-12-04T07:50:13;15.18;;;11.55;;
12302;SDS011;6214;48.012;7.862;2023-12-04T07:52:40;13.10;;;10.27;;
12302;SDS011;6214;48.012;7.862;2023-12-04T07:55:07;12.07;;;9.57;;
12302;SDS011;6214;48.012;7.862;2023-12-04T07:57:34;12.07;;;9.63;;
12302;SDS011;6214;48.012;7.862;2023-12-04T08:00:01;14.75;;;11.32;;
12302;SDS011;6214;48.012;7.862;2023-12-04T08:02:28;10.30;;;7.70;;
12302;SDS011;6214;48.012;7.862;2023-12-04T08:04:55;9.57;;;6.75;;
12302;SDS011;6214;48.012;7.862;2023-12-04T08:07:22;12.43;;;8.75;;
12302;SDS011;6214;48.012;7.862;2023-12-04T08:09:49;12.55;;;9.65;;
12302;SDS011;6214;48.012;7.862;2023-12-04T08:12:16;12.85;;;10.00;;
12302;SDS011;6214;48.012;7.862;2023-12-04T08:14:43;10.97;;;8.20;;
12302;SDS011;6214;48.012;7.862;2023-12-04T08:17:10;13.40;;;9.90;;
12302;SDS011;6214;48.012;7.862;2023-12-04T08:19:37;12.35;;;9.02;;
12302;SDS011;6214;48.012;7.862;2023-12-04T08:22:05;11.63;;;8.98;;
12302;SDS011;6214;48.012;7.862;2023-12-04T08:24:31;10.88;;;7.40;;
12302;SDS011;6214;48.012;7.862;2023-12-04T08:26:58;12.45;;;9.35;;
12302;SDS011;6214;48.012;7.862;2023-12-04T08:29:25;13.50;;;10.93;;
12302;SDS011;6214;48.012;7.862;2023-12-04T08:31:52;12.20;;;8.80;;
12302;SDS011;6214;48.012;7.862;2023-12-04T08:34:19;9.90;;;7.30;;
12302;SDS011;6214;48.012;7.862;2023-12-04T08:36:46;11.55;;;8.77;;
12302;SDS011;6214;48.012;7.862;2023-12-04T08:39:13;12.00;;;8.60;;
12302;SDS011;6214;48.012;7.862;2023-12-04T08:41:40;12.50;;;10.10;;
12302;SDS011;6214;48.012;7.862;2023-12-04T08:44:20;11.07;;;8.35;;
12302;SDS011;6214;48.012;7.862;2023-12-04T08:46:47;11.80;;;9.02;;
12302;SDS011;6214;48.012;7.862;2023-12-04T08:49:14;13.88;;;10.40;;
12302;SDS011;6214;48.012;7.862;2023-12-04T08:51:41;13.90;;;10.98;;
12302;SDS011;6214;48.012;7.862;2023-12-04T08:54:08;14.98;;;12.02;;
12302;SDS011;6214;48.012;7.862;2023-12-04T08:56:38;16.15;;;11.98;;
12302;SDS011;6214;48.012;7.862;2023-12-04T08:59:05;12.23;;;9.70;;
12302;SDS011;6214;48.012;7.862;2023-12-04T09:01:33;11.57;;;8.20;;
12302;SDS011;6214;48.012;7.862;2023-12-04T09:04:00;14.68;;;11.70;;
12302;SDS011;6214;48.012;7.862;2023-12-04T09:06:28;15.20;;;11.75;;
12302;SDS011;6214;48.012;7.862;2023-12-04T09:08:57;12.32;;;9.05;;
12302;SDS011;6214;48.012;7.862;2023-12-04T09:11:34;14.10;;;11.60;;
12302;SDS011;6214;48.012;7.862;2023-12-04T09:14:01;15.57;;;11.95;;
12302;SDS011;6214;48.012;7.862;2023-12-04T09:16:29;16.50;;;13.05;;
12302;SDS011;6214;48.012;7.862;2023-12-04T09:18:56;12.70;;;10.25;;
12302;SDS011;6214;48.012;7.862;2023-12-04T09:21:23;14.18;;;11.23;;
12302;SDS011;6214;48.012;7.862;2023-12-04T09:23:51;14.98;;;12.45;;
12302;SDS011;6214;48.012;7.862;2023-12-04T09:26:18;15.65;;;12.10;;
12302;SDS011;6214;48.012;7.862;2023-12-04T09:28:45;13.57;;;10.73;;
12302;SDS011;6214;48.012;7.862;2023-12-04T09:31:12;14.90;;;12.07;;
12302;SDS011;6214;48.012;7.862;2023-12-04T09:33:39;14.40;;;10.93;;
12302;SDS011;6214;48.012;7.862;2023-12-04T09:36:06;14.80;;;12.40;;
12302;SDS011;6214;48.012;7.862;2023-12-04T09:38:34;14.98;;;11.95;;
12302;SDS011;6214;48.012;7.862;2023-12-04T09:41:02;17.23;;;13.60;;
12302;SDS011;6214;48.012;7.862;2023-12-04T09:43:31;12.68;;;9.93;;
12302;SDS011;6214;48.012;7.862;2023-12-04T09:45:58;14.55;;;12.23;;
12302;SDS011;6214;48.012;7.862;2023-12-04T09:48:26;15.35;;;12.10;;
12302;SDS011;6214;48.012;7.862;2023-12-04T09:50:54;16.30;;;13.15;;
12302;SDS011;6214;48.012;7.862;2023-12-04T09:53:24;15.05;;;12.32;;
12302;SDS011;6214;48.012;7.862;2023-12-04T09:55:53;15.13;;;11.50;;
12302;SDS011;6214;48.012;7.862;2023-12-04T09:58:23;13.32;;;10.85;;
12302;SDS011;6214;48.012;7.862;2023-12-04T10:00:53;14.02;;;11.60;;
12302;SDS011;6214;48.012;7.862;2023-12-04T10:03:21;14.27;;;11.13;;
12302;SDS011;6214;48.012;7.862;2023-12-04T10:05:49;10.90;;;7.97;;
12302;SDS011;6214;48.012;7.862;2023-12-04T10:08:16;13.32;;;10.27;;
12302;SDS011;6214;48.012;7.862;2023-12-04T10:10:43;14.75;;;12.05;;
12302;SDS011;6214;48.012;7.862;2023-12-04T10:13:11;14.00;;;11.45;;
12302;SDS011;6214;48.012;7.862;2023-12-04T10:15:48;15.07;;;11.43;;
12302;SDS011;6214;48.012;7.862;2023-12-04T10:18:25;18.75;;;14.30;;
12302;SDS011;6214;48.012;7.862;2023-12-04T10:20:54;17.35;;;14.10;;
12302;SDS011;6214;48.012;7.862;2023-12-04T10:23:21;16.30;;;12.90;;
12302;SDS011;6214;48.012;7.862;2023-12-04T10:25:49;14.95;;;11.90;;
12302;SDS011;6214;48.012;7.862;2023-12-04T10:28:17;14.45;;;10.82;;
12302;SDS011;6214;48.012;7.862;2023-12-04T10:30:45;12.27;;;9.60;;
12302;SDS011;6214;48.012;7.862;2023-12-04T10:33:12;11.88;;;9.30;;
12302;SDS011;6214;48.012;7.862;2023-12-04T10:35:40;11.07;;;7.55;;
12302;SDS011;6214;48.012;7.862;2023-12-04T10:38:08;11.90;;;8.70;;
12302;SDS011;6214;48.012;7.862;2023-12-04T10:40:36;9.65;;;6.90;;
12302;SDS011;6214;48.012;7.862;2023-12-04T10:43:10;11.00;;;8.40;;
12302;SDS011;6214;48.012;7.862;2023-12-04T10:45:53;13.68;;;11.48;;
12302;SDS011;6214;48.012;7.862;2023-12-04T10:48:21;14.18;;;11.40;;
12302;SDS011;6214;48.012;7.862;2023-12-04T10:50:48;11.35;;;9.10;;
12302;SDS011;6214;48.012;7.862;2023-12-04T10:53:16;12.80;;;10.77;;
12302;SDS011;6214;48.012;7.862;2023-12-04T10:55:44;14.32;;;10.02;;
12302;SDS011;6214;48.012;7.862;2023-12-04T10:58:13;14.70;;;12.70;;
12302;SDS011;6214;48.012;7.862;2023-12-04T11:00:45;16.80;;;13.15;;
12302;SDS011;6214;48.012;7.862;2023-12-04T11:03:28;15.02;;;12.93;;
12302;SDS011;6214;48.012;7.862;2023-12-04T11:06:01;14.82;;;12.40;;
12302;SDS011;6214;48.012;7.862;2023-12-04T11:08:32;12.57;;;10.18;;
12302;SDS011;6214;48.012;7.862;2023-12-04T11:11:02;12.03;;;9.70;;
12302;SDS011;6214;48.012;7.862;2023-12-04T11:13:31;13.77;;;11.77;;
12302;SDS011;6214;48.012;7.862;2023-12-04T11:16:01;16.75;;;13.80;;
12302;SDS011;6214;48.012;7.862;2023-12-04T11:18:35;16.77;;;14.98;;
12302;SDS011;6214;48.012;7.862;2023-12-04T11:21:08;14.70;;;11.63;;
12302;SDS011;6214;48.012;7.862;2023-12-04T11:23:37;18.58;;;15.65;;
12302;SDS011;6214;48.012;7.862;2023-12-04T11:26:06;15.45;;;13.15;;
12302;SDS011;6214;48.012;7.862;2023-12-04T11:28:34;15.60;;;13.27;;
12302;SDS011;6214;48.012;7.862;2023-12-04T11:31:04;18.13;;;14.40;;
12302;SDS011;6214;48.012;7.862;2023-12-04T11:33:36;17.40;;;14.50;;
12302;SDS011;6214;48.012;7.862;2023-12-04T11:36:08;14.63;;;12.60;;
12302;SDS011;6214;48.012;7.862;2023-12-04T11:38:44;17.88;;;15.90;;
12302;SDS011;6214;48.012;7.862;2023-12-04T11:41:17;14.63;;;12.90;;
12302;SDS011;6214;48.012;7.862;2023-12-04T11:43:54;15.00;;;12.73;;
12302;SDS011;6214;48.012;7.862;2023-12-04T11:46:23;13.98;;;11.32;;
12302;SDS011;6214;48.012;7.862;2023-12-04T11:51:57;15.50;;;12.90;;
12302;SDS011;6214;48.012;7.862;2023-12-04T11:54:55;16.60;;;14.23;;
12302;SDS011;6214;48.012;7.862;2023-12-04T11:57:27;13.60;;;11.18;;
12302;SDS011;6214;48.012;7.862;2023-12-04T12:02:39;16.40;;;13.95;;
12302;SDS011;6214;48.012;7.862;2023-12-04T12:05:26;14.27;;;12.23;;
12302;SDS011;6214;48.012;7.862;2023-12-04T12:07:54;14.20;;;11.18;;
12302;SDS011;6214;48.012;7.862;2023-12-04T12:10:22;13.43;;;10.50;;
12302;SDS011;6214;48.012;7.862;2023-12-04T12:12:49;16.90;;;14.60;;
12302;SDS011;6214;48.012;7.862;2023-12-04T12:15:16;14.98;;;12.02;;
12302;SDS011;6214;48.012;7.862;2023-12-04T12:17:43;16.73;;;14.25;;
12302;SDS011;6214;48.012;7.862;2023-12-04T12:20:11;17.60;;;15.53;;
12302;SDS011;6214;48.012;7.862;2023-12-04T12:22:39;16.02;;;13.75;;
12302;SDS011;6214;48.012;7.862;2023-12-04T12:25:08;15.18;;;12.80;;
12302;SDS011;6214;48.012;7.862;2023-12-04T12:27:35;17.90;;;15.98;;
12302;SDS011;6214;48.012;7.862;2023-12-04T12:30:03;14.70;;;13.10;;
12302;SDS011;6214;48.012;7.862;2023-12-04T12:32:31;14.57;;;11.68;;
12302;SDS011;6214;48.012;7.862;2023-12-04T12:34:59;18.50;;;15.85;;
12302;SDS011;6214;48.012;7.862;2023-12-04T12:37:27;17.33;;;15.25;;
12302;SDS011;6214;48.012;7.862;2023-12-04T12:39:54;12.85;;;11.10;;
12302;SDS011;6214;48.012;7.862;2023-12-04T12:42:27;13.32;;;10.90;;
12302;SDS011;6214;48.012;7.862;2023-12-04T12:44:55;12.45;;;9.73;;
12302;SDS011;6214;48.012;7.862;2023-12-04T12:47:26;10.43;;;7.87;;
12302;SDS011;6214;48.012;7.862;2023-12-04T12:49:53;10.93;;;8.70;;
12302;SDS011;6214;48.012;7.862;2023-12-04T12:52:20;13.57;;;10.95;;
12302;SDS011;6214;48.012;7.862;2023-12-04T12:54:47;16.20;;;14.40;;
12302;SDS011;6214;48.012;7.862;2023-12-04T12:57:14;14.32;;;12.13;;
12302;SDS011;6214;48.012;7.862;2023-12-04T12:59:41;14.38;;;11.60;;
12302;SDS011;6214;48.012;7.862;2023-12-04T13:02:08;13.07;;;9.90;;
12302;SDS011;6214;48.012;7.862;2023-12-04T13:04:37;12.00;;;9.80;;
12302;SDS011;6214;48.012;7.862;2023-12-04T13:07:05;11.38;;;9.15;;
12302;SDS011;6214;48.012;7.862;2023-12-04T13:09:33;10.60;;;8.50;;
12302;SDS011;6214;48.012;7.862;2023-12-04T13:12:05;12.55;;;9.85;;
12302;SDS011;6214;48.012;7.862;2023-12-04T13:14:33;13.52;;;11.32;;
12302;SDS011;6214;48.012;7.862;2023-12-04T13:17:04;13.30;;;10.82;;
12302;SDS011;6214;48.012;7.862;2023-12-04T13:19:31;18.02;;;15.77;;
12302;SDS011;6214;48.012;7.862;2023-12-04T13:22:00;16.00;;;13.77;;
12302;SDS011;6214;48.012;7.862;2023-12-04T13:24:28;12.65;;;10.77;;
12302;SDS011;6214;48.012;7.862;2023-12-04T13:26:55;15.30;;;13.02;;
12302;SDS011;6214;48.012;7.862;2023-12-04T13:29:21;15.88;;;12.70;;
12302;SDS011;6214;48.012;7.862;2023-12-04T13:31:49;13.02;;;10.02;;
12302;SDS011;6214;48.012;7.862;2023-12-04T13:34:17;12.13;;;8.90;;
12302;SDS011;6214;48.012;7.862;2023-12-04T13:36:44;12.33;;;10.10;;
12302;SDS011;6214;48.012;7.862;2023-12-04T13:39:11;13.30;;;10.88;;
12302;SDS011;6214;48.012;7.862;2023-12-04T13:41:49;11.15;;;8.90;;
12302;SDS011;6214;48.012;7.862;2023-12-04T13:44:34;18.27;;;14.40;;
12302;SDS011;6214;48.012;7.862;2023-12-04T13:47:01;13.30;;;11.50;;
12302;SDS011;6214;48.012;7.862;2023-12-04T13:49:28;12.30;;;9.70;;
12302;SDS011;6214;48.012;7.862;2023-12-04T13:51:55;15.27;;;12.18;;
12302;SDS011;6214;48.012;7.862;2023-12-04T13:54:22;13.88;;;10.90;;
12302;SDS011;6214;48.012;7.862;2023-12-04T13:57:01;11.63;;;9.43;;
12302;SDS011;6214;48.012;7.862;2023-12-04T13:59:30;11.30;;;8.82;;
12302;SDS011;6214;48.012;7.862;2023-12-04T14:02:00;12.38;;;10.13;;
12302;SDS011;6214;48.012;7.862;2023-12-04T14:04:29;13.50;;;11.35;;
12302;SDS011;6214;48.012;7.862;2023-12-04T14:06:57;10.32;;;8.23;;
12302;SDS011;6214;48.012;7.862;2023-12-04T14:09:28;11.90;;;9.55;;
12302;SDS011;6214;48.012;7.862;2023-12-04T14:11:55;12.68;;;10.60;;
12302;SDS011;6214;48.012;7.862;2023-12-04T14:14:23;12.73;;;10.93;;
12302;SDS011;6214;48.012;7.862;2023-12-04T14:16:49;13.18;;;11.40;;
12302;SDS011;6214;48.012;7.862;2023-12-04T14:19:16;12.27;;;10.00;;
12302;SDS011;6214;48.012;7.862;2023-12-04T14:21:47;12.20;;;10.30;;
12302;SDS011;6214;48.012;7.862;2023-12-04T14:24:14;13.25;;;11.40;;
12302;SDS011;6214;48.012;7.862;2023-12-04T14:26:41;11.95;;;9.55;;
12302;SDS011;6214;48.012;7.862;2023-12-04T14:29:08;10.40;;;8.60;;
12302;SDS011;6214;48.012;7.862;2023-12-04T14:31:35;13.85;;;12.00;;
12302;SDS011;6214;48.012;7.862;2023-12-04T14:34:03;10.85;;;8.80;;
12302;SDS011;6214;48.012;7.862;2023-12-04T14:36:30;9.90;;;7.40;;
12302;SDS011;6214;48.012;7.862;2023-12-04T14:38:58;10.87;;;9.20;;
12302;SDS011;6214;48.012;7.862;2023-12-04T14:41:27;11.50;;;9.60;;
12302;SDS011;6214;48.012;7.862;2023-12-04T14:43:54;11.93;;;9.40;;
12302;SDS011;6214;48.012;7.862;2023-12-04T14:46:22;11.20;;;9.07;;
12302;SDS011;6214;48.012;7.862;2023-12-04T14:48:49;14.37;;;11.03;;
12302;SDS011;6214;48.012;7.862;2023-12-04T14:51:16;12.40;;;9.68;;
12302;SDS011;6214;48.012;7.862;2023-12-04T14:53:43;13.77;;;10.77;;
12302;SDS011;6214;48.012;7.862;2023-12-04T14:56:17;16.80;;;14.10;;
12302;SDS011;6214;48.012;7.862;2023-12-04T14:59:02;11.60;;;9.40;;